sensor_id;sensor_type;location;lat;lon;timestamp;temperature;humidity
74511;DHT22;62991;50.040;18.400;2023-08-30T00:00:20;15.60;86.40
74511;DHT22;62991;50.040;18.400;2023-08-30T00:03:21;15.70;86.30
74511;DHT22;62991;50.040;18.400;2023-08-30T00:06:22;15.80;85.60
74511;DHT22;62991;50.040;18.400;2023-08-30T00:09:22;15.70;85.80
74511;DHT22;62991;50.040;18.400;2023-08-30T00:12:23;15.60;85.70
74511;DHT22;62991;50.040;18.400;2023-08-30T00:15:25;15.70;85.70
74511;DHT22;62991;50.040;18.400;2023-08-30T00:18:25;15.70;85.30
74511;DHT22;62991;50.040;18.400;2023-08-30T00:21:26;15.70;85.50
74511;DHT22;62991;50.040;18.400;2023-08-30T00:24:27;15.70;85.20
74511;DHT22;62991;50.040;18.400;2023-08-30T00:27:28;15.60;85.50
74511;DHT22;62991;50.040;18.400;2023-08-30T00:30:29;15.60;85.70
74511;DHT22;62991;50.040;18.400;2023-08-30T00:33:30;15.60;85.80
74511;DHT22;62991;50.040;18.400;2023-08-30T00:36:30;15.70;85.40
74511;DHT22;62991;50.040;18.400;2023-08-30T00:39:31;15.70;85.10
74511;DHT22;62991;50.040;18.400;2023-08-30T00:42:32;15.80;84.80
74511;DHT22;62991;50.040;18.400;2023-08-30T00:45:33;15.70;84.70
74511;DHT22;62991;50.040;18.400;2023-08-30T00:48:35;15.70;84.90
74511;DHT22;62991;50.040;18.400;2023-08-30T00:51:35;15.70;85.00
74511;DHT22;62991;50.040;18.400;2023-08-30T00:54:37;15.50;85.40
74511;DHT22;62991;50.040;18.400;2023-08-30T00:57:38;15.60;85.40
74511;DHT22;62991;50.040;18.400;2023-08-30T01:00:39;15.60;85.50
74511;DHT22;62991;50.040;18.400;2023-08-30T01:03:40;15.70;85.10
74511;DHT22;62991;50.040;18.400;2023-08-30T01:06:41;15.70;85.00
74511;DHT22;62991;50.040;18.400;2023-08-30T01:09:42;15.60;85.20
74511;DHT22;62991;50.040;18.400;2023-08-30T01:12:47;15.50;85.40
74511;DHT22;62991;50.040;18.400;2023-08-30T01:15:51;15.50;85.90
74511;DHT22;62991;50.040;18.400;2023-08-30T01:18:55;15.40;85.90
74511;DHT22;62991;50.040;18.400;2023-08-30T01:22:08;15.40;85.90
74511;DHT22;62991;50.040;18.400;2023-08-30T01:28:19;15.50;85.20
74511;DHT22;62991;50.040;18.400;2023-08-30T01:31:21;15.40;85.60
74511;DHT22;62991;50.040;18.400;2023-08-30T01:34:22;15.50;85.70
74511;DHT22;62991;50.040;18.400;2023-08-30T01:37:24;15.50;85.80
74511;DHT22;62991;50.040;18.400;2023-08-30T01:40:28;15.50;85.60
74511;DHT22;62991;50.040;18.400;2023-08-30T01:43:30;15.60;85.60
74511;DHT22;62991;50.040;18.400;2023-08-30T01:46:33;15.70;85.40
74511;DHT22;62991;50.040;18.400;2023-08-30T01:49:36;15.60;85.70
74511;DHT22;62991;50.040;18.400;2023-08-30T01:52:38;15.50;85.70
74511;DHT22;62991;50.040;18.400;2023-08-30T01:55:40;15.60;85.50
74511;DHT22;62991;50.040;18.400;2023-08-30T01:58:41;15.60;85.40
74511;DHT22;62991;50.040;18.400;2023-08-30T02:01:42;15.40;85.60
74511;DHT22;62991;50.040;18.400;2023-08-30T02:04:43;15.30;86.10
74511;DHT22;62991;50.040;18.400;2023-08-30T02:07:51;15.40;85.80
74511;DHT22;62991;50.040;18.400;2023-08-30T02:10:56;15.30;85.60
74511;DHT22;62991;50.040;18.400;2023-08-30T02:13:58;15.20;86.50
74511;DHT22;62991;50.040;18.400;2023-08-30T02:17:00;15.40;85.70
74511;DHT22;62991;50.040;18.400;2023-08-30T02:20:01;15.30;85.60
74511;DHT22;62991;50.040;18.400;2023-08-30T02:23:01;15.30;86.00
74511;DHT22;62991;50.040;18.400;2023-08-30T02:26:02;15.40;85.40
74511;DHT22;62991;50.040;18.400;2023-08-30T02:29:06;15.40;85.10
74511;DHT22;62991;50.040;18.400;2023-08-30T02:32:06;15.40;85.40
74511;DHT22;62991;50.040;18.400;2023-08-30T02:35:07;15.50;85.20
74511;DHT22;62991;50.040;18.400;2023-08-30T02:38:08;15.30;85.60
74511;DHT22;62991;50.040;18.400;2023-08-30T02:41:09;15.30;85.50
74511;DHT22;62991;50.040;18.400;2023-08-30T02:44:13;15.20;85.80
74511;DHT22;62991;50.040;18.400;2023-08-30T02:47:14;15.20;86.10
74511;DHT22;62991;50.040;18.400;2023-08-30T02:50:14;15.20;86.00
74511;DHT22;62991;50.040;18.400;2023-08-30T02:53:15;15.20;85.80
74511;DHT22;62991;50.040;18.400;2023-08-30T02:56:16;15.20;85.70
74511;DHT22;62991;50.040;18.400;2023-08-30T02:59:17;15.00;86.30
74511;DHT22;62991;50.040;18.400;2023-08-30T03:02:17;15.10;86.60
74511;DHT22;62991;50.040;18.400;2023-08-30T03:05:18;15.10;86.20
74511;DHT22;62991;50.040;18.400;2023-08-30T03:08:19;15.20;86.20
74511;DHT22;62991;50.040;18.400;2023-08-30T03:11:20;15.30;85.70
74511;DHT22;62991;50.040;18.400;2023-08-30T03:14:20;15.20;85.80
74511;DHT22;62991;50.040;18.400;2023-08-30T03:17:21;15.20;85.90
74511;DHT22;62991;50.040;18.400;2023-08-30T03:20:22;15.00;86.30
74511;DHT22;62991;50.040;18.400;2023-08-30T03:23:23;15.10;86.30
74511;DHT22;62991;50.040;18.400;2023-08-30T03:26:23;15.30;85.90
74511;DHT22;62991;50.040;18.400;2023-08-30T03:29:24;15.30;85.40
74511;DHT22;62991;50.040;18.400;2023-08-30T03:32:25;15.30;85.30
74511;DHT22;62991;50.040;18.400;2023-08-30T03:35:25;15.40;85.40
74511;DHT22;62991;50.040;18.400;2023-08-30T03:38:26;15.40;85.10
74511;DHT22;62991;50.040;18.400;2023-08-30T03:41:27;15.40;84.70
74511;DHT22;62991;50.040;18.400;2023-08-30T03:44:27;15.60;84.50
74511;DHT22;62991;50.040;18.400;2023-08-30T03:47:28;15.60;84.30
74511;DHT22;62991;50.040;18.400;2023-08-30T03:50:29;15.80;83.90
74511;DHT22;62991;50.040;18.400;2023-08-30T03:53:29;15.80;83.50
74511;DHT22;62991;50.040;18.400;2023-08-30T03:56:33;15.80;83.20
74511;DHT22;62991;50.040;18.400;2023-08-30T03:59:34;15.80;83.20
74511;DHT22;62991;50.040;18.400;2023-08-30T04:02:34;15.80;83.20
74511;DHT22;62991;50.040;18.400;2023-08-30T04:05:38;15.80;83.10
74511;DHT22;62991;50.040;18.400;2023-08-30T04:08:39;15.60;83.70
74511;DHT22;62991;50.040;18.400;2023-08-30T04:11:39;15.60;83.40
74511;DHT22;62991;50.040;18.400;2023-08-30T04:14:40;15.50;83.90
74511;DHT22;62991;50.040;18.400;2023-08-30T04:17:41;15.60;84.20
74511;DHT22;62991;50.040;18.400;2023-08-30T04:20:45;15.70;83.40
74511;DHT22;62991;50.040;18.400;2023-08-30T04:23:46;15.60;83.90
74511;DHT22;62991;50.040;18.400;2023-08-30T04:26:47;15.70;83.20
74511;DHT22;62991;50.040;18.400;2023-08-30T04:29:52;15.70;83.10
74511;DHT22;62991;50.040;18.400;2023-08-30T04:32:53;15.70;83.00
74511;DHT22;62991;50.040;18.400;2023-08-30T04:35:55;15.70;83.10
74511;DHT22;62991;50.040;18.400;2023-08-30T04:38:55;15.70;83.30
74511;DHT22;62991;50.040;18.400;2023-08-30T04:41:56;15.80;83.00
74511;DHT22;62991;50.040;18.400;2023-08-30T04:44:57;15.80;83.20
74511;DHT22;62991;50.040;18.400;2023-08-30T04:48:01;15.80;82.80
74511;DHT22;62991;50.040;18.400;2023-08-30T04:51:02;15.80;82.80
74511;DHT22;62991;50.040;18.400;2023-08-30T04:54:03;15.90;82.80
74511;DHT22;62991;50.040;18.400;2023-08-30T04:57:04;15.90;82.50
74511;DHT22;62991;50.040;18.400;2023-08-30T05:00:05;15.90;82.50
74511;DHT22;62991;50.040;18.400;2023-08-30T05:03:06;15.90;82.20
74511;DHT22;62991;50.040;18.400;2023-08-30T05:06:07;15.90;81.90
74511;DHT22;62991;50.040;18.400;2023-08-30T05:09:08;15.90;82.50
74511;DHT22;62991;50.040;18.400;2023-08-30T05:12:09;15.90;82.60
74511;DHT22;62991;50.040;18.400;2023-08-30T05:15:10;15.90;82.30
74511;DHT22;62991;50.040;18.400;2023-08-30T05:18:10;15.90;82.20
74511;DHT22;62991;50.040;18.400;2023-08-30T05:21:11;15.70;82.90
74511;DHT22;62991;50.040;18.400;2023-08-30T05:24:11;15.80;82.80
74511;DHT22;62991;50.040;18.400;2023-08-30T05:27:12;15.90;82.40
74511;DHT22;62991;50.040;18.400;2023-08-30T05:30:15;16.00;82.60
74511;DHT22;62991;50.040;18.400;2023-08-30T05:33:16;16.10;82.00
74511;DHT22;62991;50.040;18.400;2023-08-30T05:36:17;16.10;81.70
74511;DHT22;62991;50.040;18.400;2023-08-30T05:39:18;16.10;81.50
74511;DHT22;62991;50.040;18.400;2023-08-30T05:42:19;16.10;81.60
74511;DHT22;62991;50.040;18.400;2023-08-30T05:45:20;16.10;81.40
74511;DHT22;62991;50.040;18.400;2023-08-30T05:48:20;16.10;81.60
74511;DHT22;62991;50.040;18.400;2023-08-30T05:51:21;16.20;81.50
74511;DHT22;62991;50.040;18.400;2023-08-30T05:54:22;16.30;81.10
74511;DHT22;62991;50.040;18.400;2023-08-30T05:57:23;16.30;80.90
74511;DHT22;62991;50.040;18.400;2023-08-30T06:00:25;16.20;81.60
74511;DHT22;62991;50.040;18.400;2023-08-30T06:03:26;16.30;81.50
74511;DHT22;62991;50.040;18.400;2023-08-30T06:06:26;16.30;81.70
74511;DHT22;62991;50.040;18.400;2023-08-30T06:09:27;16.30;81.60
74511;DHT22;62991;50.040;18.400;2023-08-30T06:12:28;16.50;81.00
74511;DHT22;62991;50.040;18.400;2023-08-30T06:15:29;16.50;80.60
74511;DHT22;62991;50.040;18.400;2023-08-30T06:18:30;16.50;80.40
74511;DHT22;62991;50.040;18.400;2023-08-30T06:21:32;16.40;80.80
74511;DHT22;62991;50.040;18.400;2023-08-30T06:24:33;16.40;81.00
74511;DHT22;62991;50.040;18.400;2023-08-30T06:27:33;16.30;81.10
74511;DHT22;62991;50.040;18.400;2023-08-30T06:30:34;16.20;80.80
74511;DHT22;62991;50.040;18.400;2023-08-30T06:33:35;16.20;81.20
74511;DHT22;62991;50.040;18.400;2023-08-30T06:36:36;16.30;81.60
74511;DHT22;62991;50.040;18.400;2023-08-30T06:39:37;16.30;81.30
74511;DHT22;62991;50.040;18.400;2023-08-30T06:42:37;15.90;81.80
74511;DHT22;62991;50.040;18.400;2023-08-30T06:45:39;15.70;83.00
74511;DHT22;62991;50.040;18.400;2023-08-30T06:48:40;15.60;82.90
74511;DHT22;62991;50.040;18.400;2023-08-30T06:51:40;15.60;83.10
74511;DHT22;62991;50.040;18.400;2023-08-30T06:54:41;15.50;83.90
74511;DHT22;62991;50.040;18.400;2023-08-30T06:57:47;15.50;83.50
74511;DHT22;62991;50.040;18.400;2023-08-30T07:00:47;15.60;83.20
74511;DHT22;62991;50.040;18.400;2023-08-30T07:03:48;15.60;83.60
74511;DHT22;62991;50.040;18.400;2023-08-30T07:06:49;15.70;82.50
74511;DHT22;62991;50.040;18.400;2023-08-30T07:09:49;15.60;82.90
74511;DHT22;62991;50.040;18.400;2023-08-30T07:12:50;15.90;82.80
74511;DHT22;62991;50.040;18.400;2023-08-30T07:15:51;15.80;82.20
74511;DHT22;62991;50.040;18.400;2023-08-30T07:18:52;15.70;82.40
74511;DHT22;62991;50.040;18.400;2023-08-30T07:21:52;15.60;82.70
74511;DHT22;62991;50.040;18.400;2023-08-30T07:24:53;15.60;83.30
74511;DHT22;62991;50.040;18.400;2023-08-30T07:27:54;15.70;82.70
74511;DHT22;62991;50.040;18.400;2023-08-30T07:31:04;15.70;82.70
74511;DHT22;62991;50.040;18.400;2023-08-30T07:34:05;15.50;83.10
74511;DHT22;62991;50.040;18.400;2023-08-30T07:37:19;15.60;83.20
74511;DHT22;62991;50.040;18.400;2023-08-30T07:40:20;15.70;82.70
74511;DHT22;62991;50.040;18.400;2023-08-30T07:43:24;15.70;82.80
74511;DHT22;62991;50.040;18.400;2023-08-30T07:46:25;15.60;83.00
74511;DHT22;62991;50.040;18.400;2023-08-30T07:49:26;15.60;83.10
74511;DHT22;62991;50.040;18.400;2023-08-30T07:52:27;15.70;83.00
74511;DHT22;62991;50.040;18.400;2023-08-30T07:55:28;15.70;83.20
74511;DHT22;62991;50.040;18.400;2023-08-30T07:58:28;15.70;83.10
74511;DHT22;62991;50.040;18.400;2023-08-30T08:01:29;15.60;83.30
74511;DHT22;62991;50.040;18.400;2023-08-30T08:04:30;15.70;83.50
74511;DHT22;62991;50.040;18.400;2023-08-30T08:07:30;15.70;83.10
74511;DHT22;62991;50.040;18.400;2023-08-30T08:10:34;15.80;83.30
74511;DHT22;62991;50.040;18.400;2023-08-30T08:13:35;15.90;82.60
74511;DHT22;62991;50.040;18.400;2023-08-30T08:16:35;15.70;83.10
74511;DHT22;62991;50.040;18.400;2023-08-30T08:19:36;15.70;83.30
74511;DHT22;62991;50.040;18.400;2023-08-30T08:22:40;15.60;83.60
74511;DHT22;62991;50.040;18.400;2023-08-30T08:25:40;15.70;83.70
74511;DHT22;62991;50.040;18.400;2023-08-30T08:28:41;15.80;83.00
74511;DHT22;62991;50.040;18.400;2023-08-30T08:31:42;15.70;82.80
74511;DHT22;62991;50.040;18.400;2023-08-30T08:34:43;15.60;82.60
74511;DHT22;62991;50.040;18.400;2023-08-30T08:37:43;15.50;82.80
74511;DHT22;62991;50.040;18.400;2023-08-30T08:40:44;15.60;83.20
74511;DHT22;62991;50.040;18.400;2023-08-30T08:43:45;15.80;83.00
74511;DHT22;62991;50.040;18.400;2023-08-30T08:46:48;16.00;82.20
74511;DHT22;62991;50.040;18.400;2023-08-30T08:49:50;16.10;81.30
74511;DHT22;62991;50.040;18.400;2023-08-30T08:52:51;16.00;81.50
74511;DHT22;62991;50.040;18.400;2023-08-30T08:55:53;16.20;81.90
74511;DHT22;62991;50.040;18.400;2023-08-30T08:58:56;16.40;81.30
74511;DHT22;62991;50.040;18.400;2023-08-30T09:01:57;16.40;81.00
74511;DHT22;62991;50.040;18.400;2023-08-30T09:04:59;16.50;80.50
74511;DHT22;62991;50.040;18.400;2023-08-30T09:08:02;16.50;80.50
74511;DHT22;62991;50.040;18.400;2023-08-30T09:11:03;16.70;79.00
74511;DHT22;62991;50.040;18.400;2023-08-30T09:14:04;16.60;79.40
74511;DHT22;62991;50.040;18.400;2023-08-30T09:17:05;16.60;79.70
74511;DHT22;62991;50.040;18.400;2023-08-30T09:20:14;16.50;79.60
74511;DHT22;62991;50.040;18.400;2023-08-30T09:23:19;16.60;78.70
74511;DHT22;62991;50.040;18.400;2023-08-30T09:26:20;16.50;79.70
74511;DHT22;62991;50.040;18.400;2023-08-30T09:29:22;16.60;79.50
74511;DHT22;62991;50.040;18.400;2023-08-30T09:32:25;16.60;79.30
74511;DHT22;62991;50.040;18.400;2023-08-30T09:35:43;16.80;79.20
74511;DHT22;62991;50.040;18.400;2023-08-30T09:39:23;16.80;79.60
74511;DHT22;62991;50.040;18.400;2023-08-30T09:42:26;16.90;79.20
74511;DHT22;62991;50.040;18.400;2023-08-30T09:45:35;16.90;79.50
74511;DHT22;62991;50.040;18.400;2023-08-30T09:48:57;16.90;79.20
74511;DHT22;62991;50.040;18.400;2023-08-30T09:52:15;17.00;78.90
74511;DHT22;62991;50.040;18.400;2023-08-30T09:55:23;17.10;78.80
74511;DHT22;62991;50.040;18.400;2023-08-30T09:58:26;17.30;78.50
74511;DHT22;62991;50.040;18.400;2023-08-30T10:01:30;17.10;77.10
74511;DHT22;62991;50.040;18.400;2023-08-30T10:04:31;16.90;78.50
74511;DHT22;62991;50.040;18.400;2023-08-30T10:07:33;17.00;78.70
74511;DHT22;62991;50.040;18.400;2023-08-30T10:10:34;17.10;78.10
74511;DHT22;62991;50.040;18.400;2023-08-30T10:13:39;17.20;78.30
74511;DHT22;62991;50.040;18.400;2023-08-30T10:16:44;17.40;77.70
74511;DHT22;62991;50.040;18.400;2023-08-30T10:19:46;17.40;76.90
74511;DHT22;62991;50.040;18.400;2023-08-30T10:22:48;17.50;76.90
74511;DHT22;62991;50.040;18.400;2023-08-30T10:25:52;17.40;76.60
74511;DHT22;62991;50.040;18.400;2023-08-30T10:28:54;17.40;77.50
74511;DHT22;62991;50.040;18.400;2023-08-30T10:31:55;17.30;76.20
74511;DHT22;62991;50.040;18.400;2023-08-30T10:35:00;17.30;76.40
74511;DHT22;62991;50.040;18.400;2023-08-30T10:38:00;17.30;77.20
74511;DHT22;62991;50.040;18.400;2023-08-30T10:41:08;17.30;76.90
74511;DHT22;62991;50.040;18.400;2023-08-30T10:44:14;17.40;76.60
74511;DHT22;62991;50.040;18.400;2023-08-30T10:47:22;17.60;76.70
74511;DHT22;62991;50.040;18.400;2023-08-30T10:50:33;17.70;75.50
74511;DHT22;62991;50.040;18.400;2023-08-30T10:53:34;17.70;75.60
74511;DHT22;62991;50.040;18.400;2023-08-30T10:56:35;17.70;76.20
74511;DHT22;62991;50.040;18.400;2023-08-30T10:59:36;17.80;75.70
74511;DHT22;62991;50.040;18.400;2023-08-30T11:02:37;17.70;75.30
74511;DHT22;62991;50.040;18.400;2023-08-30T11:05:40;17.60;76.10
74511;DHT22;62991;50.040;18.400;2023-08-30T11:08:41;17.60;75.60
74511;DHT22;62991;50.040;18.400;2023-08-30T11:11:42;17.40;76.00
74511;DHT22;62991;50.040;18.400;2023-08-30T11:14:43;17.40;76.30
74511;DHT22;62991;50.040;18.400;2023-08-30T11:17:44;17.20;76.30
74511;DHT22;62991;50.040;18.400;2023-08-30T11:20:45;17.10;77.50
74511;DHT22;62991;50.040;18.400;2023-08-30T11:23:45;17.30;76.90
74511;DHT22;62991;50.040;18.400;2023-08-30T11:26:46;17.30;76.80
74511;DHT22;62991;50.040;18.400;2023-08-30T11:29:52;17.50;76.30
74511;DHT22;62991;50.040;18.400;2023-08-30T11:32:53;17.60;76.20
74511;DHT22;62991;50.040;18.400;2023-08-30T11:35:56;17.50;75.50
74511;DHT22;62991;50.040;18.400;2023-08-30T11:38:57;17.60;76.00
74511;DHT22;62991;50.040;18.400;2023-08-30T11:41:59;17.70;75.40
74511;DHT22;62991;50.040;18.400;2023-08-30T11:45:00;17.50;75.30
74511;DHT22;62991;50.040;18.400;2023-08-30T11:48:02;17.40;76.70
74511;DHT22;62991;50.040;18.400;2023-08-30T11:51:03;17.60;76.20
74511;DHT22;62991;50.040;18.400;2023-08-30T11:54:03;17.50;75.60
74511;DHT22;62991;50.040;18.400;2023-08-30T11:57:04;17.50;76.00
74511;DHT22;62991;50.040;18.400;2023-08-30T12:00:10;17.50;75.90
74511;DHT22;62991;50.040;18.400;2023-08-30T12:03:14;17.60;75.90
74511;DHT22;62991;50.040;18.400;2023-08-30T12:06:15;17.50;75.90
74511;DHT22;62991;50.040;18.400;2023-08-30T12:09:16;17.30;76.00
74511;DHT22;62991;50.040;18.400;2023-08-30T12:12:17;17.10;76.30
74511;DHT22;62991;50.040;18.400;2023-08-30T12:15:17;17.30;77.00
74511;DHT22;62991;50.040;18.400;2023-08-30T12:18:27;17.40;76.10
74511;DHT22;62991;50.040;18.400;2023-08-30T12:21:28;17.10;76.70
74511;DHT22;62991;50.040;18.400;2023-08-30T12:24:43;17.00;77.10
74511;DHT22;62991;50.040;18.400;2023-08-30T12:27:44;17.10;77.20
74511;DHT22;62991;50.040;18.400;2023-08-30T12:30:45;17.10;77.10
74511;DHT22;62991;50.040;18.400;2023-08-30T12:33:45;17.00;77.00
74511;DHT22;62991;50.040;18.400;2023-08-30T12:36:46;17.00;77.10
74511;DHT22;62991;50.040;18.400;2023-08-30T12:39:47;16.90;77.50
74511;DHT22;62991;50.040;18.400;2023-08-30T12:42:47;16.80;78.00
74511;DHT22;62991;50.040;18.400;2023-08-30T12:45:49;16.70;78.00
74511;DHT22;62991;50.040;18.400;2023-08-30T12:48:50;16.70;77.50
74511;DHT22;62991;50.040;18.400;2023-08-30T12:51:51;16.80;77.60
74511;DHT22;62991;50.040;18.400;2023-08-30T12:54:51;16.70;77.70
74511;DHT22;62991;50.040;18.400;2023-08-30T12:57:54;16.70;77.80
74511;DHT22;62991;50.040;18.400;2023-08-30T13:00:55;16.70;77.60
74511;DHT22;62991;50.040;18.400;2023-08-30T13:03:55;16.90;77.60
74511;DHT22;62991;50.040;18.400;2023-08-30T13:06:56;17.10;77.80
74511;DHT22;62991;50.040;18.400;2023-08-30T13:09:57;17.30;77.00
74511;DHT22;62991;50.040;18.400;2023-08-30T13:12:57;17.50;77.00
74511;DHT22;62991;50.040;18.400;2023-08-30T13:15:58;17.70;76.70
74511;DHT22;62991;50.040;18.400;2023-08-30T13:18:59;17.80;76.30
74511;DHT22;62991;50.040;18.400;2023-08-30T13:21:59;17.60;76.00
74511;DHT22;62991;50.040;18.400;2023-08-30T13:25:00;17.40;77.00
74511;DHT22;62991;50.040;18.400;2023-08-30T13:28:00;17.50;77.00
74511;DHT22;62991;50.040;18.400;2023-08-30T13:31:01;17.30;78.00
74511;DHT22;62991;50.040;18.400;2023-08-30T13:34:02;17.20;78.50
74511;DHT22;62991;50.040;18.400;2023-08-30T13:37:03;17.20;78.60
74511;DHT22;62991;50.040;18.400;2023-08-30T13:40:04;17.00;79.10
74511;DHT22;62991;50.040;18.400;2023-08-30T13:43:06;16.90;79.60
74511;DHT22;62991;50.040;18.400;2023-08-30T13:46:07;16.90;79.50
74511;DHT22;62991;50.040;18.400;2023-08-30T13:49:08;17.10;78.90
74511;DHT22;62991;50.040;18.400;2023-08-30T13:52:08;17.20;78.40
74511;DHT22;62991;50.040;18.400;2023-08-30T13:55:09;17.20;77.90
74511;DHT22;62991;50.040;18.400;2023-08-30T13:58:10;17.20;77.80
74511;DHT22;62991;50.040;18.400;2023-08-30T14:01:11;17.20;78.30
74511;DHT22;62991;50.040;18.400;2023-08-30T14:04:11;17.30;78.10
74511;DHT22;62991;50.040;18.400;2023-08-30T14:07:12;17.40;78.00
74511;DHT22;62991;50.040;18.400;2023-08-30T14:10:13;17.40;76.60
74511;DHT22;62991;50.040;18.400;2023-08-30T14:13:18;17.40;77.30
74511;DHT22;62991;50.040;18.400;2023-08-30T14:16:19;17.40;77.40
74511;DHT22;62991;50.040;18.400;2023-08-30T14:19:19;17.40;78.00
74511;DHT22;62991;50.040;18.400;2023-08-30T14:22:20;17.50;77.10
74511;DHT22;62991;50.040;18.400;2023-08-30T14:25:21;17.50;77.00
74511;DHT22;62991;50.040;18.400;2023-08-30T14:28:21;17.20;77.00
74511;DHT22;62991;50.040;18.400;2023-08-30T14:31:22;17.20;78.20
74511;DHT22;62991;50.040;18.400;2023-08-30T14:34:23;17.20;78.40
74511;DHT22;62991;50.040;18.400;2023-08-30T14:37:23;17.20;78.30
74511;DHT22;62991;50.040;18.400;2023-08-30T14:40:24;17.30;77.80
74511;DHT22;62991;50.040;18.400;2023-08-30T14:43:24;17.20;77.70
74511;DHT22;62991;50.040;18.400;2023-08-30T14:46:25;17.10;78.10
74511;DHT22;62991;50.040;18.400;2023-08-30T14:49:26;17.20;78.20
74511;DHT22;62991;50.040;18.400;2023-08-30T14:52:27;17.10;77.50
74511;DHT22;62991;50.040;18.400;2023-08-30T14:55:28;17.00;77.60
74511;DHT22;62991;50.040;18.400;2023-08-30T14:58:29;17.00;78.00
74511;DHT22;62991;50.040;18.400;2023-08-30T15:01:29;17.10;78.30
74511;DHT22;62991;50.040;18.400;2023-08-30T15:04:30;17.20;77.70
74511;DHT22;62991;50.040;18.400;2023-08-30T15:07:31;17.10;77.80
74511;DHT22;62991;50.040;18.400;2023-08-30T15:10:32;17.10;77.50
74511;DHT22;62991;50.040;18.400;2023-08-30T15:13:32;17.20;77.90
74511;DHT22;62991;50.040;18.400;2023-08-30T15:16:33;17.10;78.00
74511;DHT22;62991;50.040;18.400;2023-08-30T15:19:33;17.10;77.90
74511;DHT22;62991;50.040;18.400;2023-08-30T15:22:35;17.10;77.70
74511;DHT22;62991;50.040;18.400;2023-08-30T15:25:39;17.30;77.10
74511;DHT22;62991;50.040;18.400;2023-08-30T15:28:40;17.30;76.50
74511;DHT22;62991;50.040;18.400;2023-08-30T15:31:40;17.20;76.90
74511;DHT22;62991;50.040;18.400;2023-08-30T15:34:41;17.10;77.10
74511;DHT22;62991;50.040;18.400;2023-08-30T15:37:43;17.10;77.50
74511;DHT22;62991;50.040;18.400;2023-08-30T15:40:44;17.10;77.50
74511;DHT22;62991;50.040;18.400;2023-08-30T15:43:44;17.00;77.70
74511;DHT22;62991;50.040;18.400;2023-08-30T15:46:45;16.70;78.30
74511;DHT22;62991;50.040;18.400;2023-08-30T15:49:46;16.80;78.90
74511;DHT22;62991;50.040;18.400;2023-08-30T15:52:46;17.00;78.40
74511;DHT22;62991;50.040;18.400;2023-08-30T15:55:47;17.10;77.20
74511;DHT22;62991;50.040;18.400;2023-08-30T15:58:48;17.10;77.00
74511;DHT22;62991;50.040;18.400;2023-08-30T16:01:48;17.00;77.20
74511;DHT22;62991;50.040;18.400;2023-08-30T16:04:49;17.10;76.20
74511;DHT22;62991;50.040;18.400;2023-08-30T16:07:50;17.10;75.70
74511;DHT22;62991;50.040;18.400;2023-08-30T16:10:54;17.20;75.60
74511;DHT22;62991;50.040;18.400;2023-08-30T16:13:55;17.20;75.30
74511;DHT22;62991;50.040;18.400;2023-08-30T16:16:56;17.10;75.80
74511;DHT22;62991;50.040;18.400;2023-08-30T16:19:56;17.10;75.80
74511;DHT22;62991;50.040;18.400;2023-08-30T16:22:57;17.00;76.10
74511;DHT22;62991;50.040;18.400;2023-08-30T16:25:59;17.10;76.60
74511;DHT22;62991;50.040;18.400;2023-08-30T16:28:59;17.20;76.20
74511;DHT22;62991;50.040;18.400;2023-08-30T16:32:00;17.30;76.50
74511;DHT22;62991;50.040;18.400;2023-08-30T16:35:01;17.40;76.30
74511;DHT22;62991;50.040;18.400;2023-08-30T16:38:01;17.50;76.00
74511;DHT22;62991;50.040;18.400;2023-08-30T16:41:03;17.60;75.90
74511;DHT22;62991;50.040;18.400;2023-08-30T16:44:04;17.70;75.10
74511;DHT22;62991;50.040;18.400;2023-08-30T16:47:05;17.70;74.60
74511;DHT22;62991;50.040;18.400;2023-08-30T16:50:06;17.70;74.80
74511;DHT22;62991;50.040;18.400;2023-08-30T16:53:07;17.80;75.00
74511;DHT22;62991;50.040;18.400;2023-08-30T16:56:10;17.80;75.10
74511;DHT22;62991;50.040;18.400;2023-08-30T16:59:11;17.80;75.20
74511;DHT22;62991;50.040;18.400;2023-08-30T17:02:11;17.70;74.80
74511;DHT22;62991;50.040;18.400;2023-08-30T17:05:12;17.60;75.60
74511;DHT22;62991;50.040;18.400;2023-08-30T17:08:13;17.70;75.10
74511;DHT22;62991;50.040;18.400;2023-08-30T17:11:13;17.60;74.70
74511;DHT22;62991;50.040;18.400;2023-08-30T17:14:15;17.60;75.40
74511;DHT22;62991;50.040;18.400;2023-08-30T17:17:15;17.50;75.10
74511;DHT22;62991;50.040;18.400;2023-08-30T17:20:16;17.60;75.40
74511;DHT22;62991;50.040;18.400;2023-08-30T17:23:17;17.60;75.00
74511;DHT22;62991;50.040;18.400;2023-08-30T17:26:17;17.50;75.60
74511;DHT22;62991;50.040;18.400;2023-08-30T17:29:19;17.40;75.60
74511;DHT22;62991;50.040;18.400;2023-08-30T17:32:20;17.50;76.00
74511;DHT22;62991;50.040;18.400;2023-08-30T17:35:21;17.40;75.90
74511;DHT22;62991;50.040;18.400;2023-08-30T17:38:22;17.50;75.90
74511;DHT22;62991;50.040;18.400;2023-08-30T17:41:23;17.60;75.60
74511;DHT22;62991;50.040;18.400;2023-08-30T17:44:24;17.50;75.10
74511;DHT22;62991;50.040;18.400;2023-08-30T17:47:25;17.50;75.50
74511;DHT22;62991;50.040;18.400;2023-08-30T17:50:26;17.50;75.30
74511;DHT22;62991;50.040;18.400;2023-08-30T17:53:28;17.60;75.50
74511;DHT22;62991;50.040;18.400;2023-08-30T17:56:28;17.40;75.30
74511;DHT22;62991;50.040;18.400;2023-08-30T17:59:29;17.30;75.90
74511;DHT22;62991;50.040;18.400;2023-08-30T18:02:32;17.20;75.90
74511;DHT22;62991;50.040;18.400;2023-08-30T18:05:32;17.20;76.40
74511;DHT22;62991;50.040;18.400;2023-08-30T18:08:34;17.30;75.90
74511;DHT22;62991;50.040;18.400;2023-08-30T18:11:35;17.30;75.90
74511;DHT22;62991;50.040;18.400;2023-08-30T18:14:36;17.40;75.80
74511;DHT22;62991;50.040;18.400;2023-08-30T18:17:37;17.40;75.80
74511;DHT22;62991;50.040;18.400;2023-08-30T18:20:38;17.40;75.60
74511;DHT22;62991;50.040;18.400;2023-08-30T18:24:10;17.40;75.30
74511;DHT22;62991;50.040;18.400;2023-08-30T18:27:04;17.40;75.50
74511;DHT22;62991;50.040;18.400;2023-08-30T18:30:05;17.40;75.50
74511;DHT22;62991;50.040;18.400;2023-08-30T18:33:07;17.40;75.50
74511;DHT22;62991;50.040;18.400;2023-08-30T18:36:08;17.30;75.60
74511;DHT22;62991;50.040;18.400;2023-08-30T18:39:09;17.30;75.50
74511;DHT22;62991;50.040;18.400;2023-08-30T18:42:09;17.40;75.70
74511;DHT22;62991;50.040;18.400;2023-08-30T18:45:11;17.40;75.60
74511;DHT22;62991;50.040;18.400;2023-08-30T18:48:11;17.40;75.50
74511;DHT22;62991;50.040;18.400;2023-08-30T18:51:12;17.40;75.60